createdAt,value
2022-07-31T00:00:46.708Z,99856.97
2022-07-31T00:03:49.164Z,99847.16
2022-07-31T00:06:51.875Z,99841.25
2022-07-31T00:09:55.511Z,99843.16
2022-07-31T00:12:57.670Z,99838.09
2022-07-31T00:16:00.039Z,99840.44
2022-07-31T00:19:02.159Z,99832.53
2022-07-31T00:22:05.040Z,99829.38
2022-07-31T00:25:08.093Z,99832.63
2022-07-31T00:28:10.498Z,99826.72
2022-07-31T00:31:12.743Z,99838.50
2022-07-31T00:34:15.128Z,99831.78
2022-07-31T00:37:17.263Z,99837.66
2022-07-31T00:40:19.640Z,99832.13
2022-07-31T00:43:22.137Z,99839.53
2022-07-31T00:46:24.547Z,99844.22
2022-07-31T00:49:27.778Z,99839.06
2022-07-31T00:52:40.058Z,99841.81
2022-07-31T00:55:51.670Z,99841.78
2022-07-31T00:58:57.069Z,99840.94
2022-07-31T01:01:59.603Z,99841.75
2022-07-31T01:05:02.279Z,99847.97
2022-07-31T01:08:05.550Z,99856.13
2022-07-31T01:11:17.346Z,99850.38
2022-07-31T01:14:25.795Z,99851.44
2022-07-31T01:17:30.650Z,99853.84
2022-07-31T01:20:34.543Z,99847.97
2022-07-31T01:23:50.447Z,99849.16
2022-07-31T01:27:01.466Z,99851.03
2022-07-31T01:30:05.509Z,99858.53
2022-07-31T01:33:15.258Z,99860.50
2022-07-31T01:36:22.764Z,99871.84
2022-07-31T01:39:26.442Z,99863.63
2022-07-31T01:42:39.462Z,99867.53
2022-07-31T01:45:45.518Z,99855.81
2022-07-31T01:48:50.181Z,99860.56
2022-07-31T01:51:53.135Z,99871.91
2022-07-31T01:54:59.829Z,99863.37
2022-07-31T01:58:03.172Z,99857.19
2022-07-31T02:01:08.966Z,99854.84
2022-07-31T02:04:16.167Z,99843.84
2022-07-31T02:07:19.846Z,99862.28
2022-07-31T02:10:24.695Z,99852.88
2022-07-31T02:13:28.827Z,99851.72
2022-07-31T02:16:32.108Z,99849.34
2022-07-31T02:19:37.740Z,99848.16
2022-07-31T02:22:40.157Z,99846.97
2022-07-31T02:25:44.911Z,99841.91
2022-07-31T02:28:48.825Z,99835.22
2022-07-31T02:32:03.049Z,99837.94
2022-07-31T02:35:07.785Z,99839.91
2022-07-31T02:38:17.202Z,99839.91
2022-07-31T02:41:26.863Z,99831.63
2022-07-31T02:44:31.803Z,99841.09
2022-07-31T02:47:36.576Z,99837.53
2022-07-31T02:50:40.041Z,99838.75
2022-07-31T02:53:42.539Z,99828.44
2022-07-31T02:56:46.338Z,99834.78
2022-07-31T02:59:48.610Z,99833.09
2022-07-31T03:02:52.019Z,99830.34
2022-07-31T03:05:54.751Z,99827.63
2022-07-31T03:08:57.155Z,99833.09
2022-07-31T03:12:01.839Z,99833.94
2022-07-31T03:15:14.862Z,99838.50
2022-07-31T03:18:18.717Z,99847.84
2022-07-31T03:21:22.087Z,99843.63
2022-07-31T03:24:25.743Z,99839.34
2022-07-31T03:27:28.372Z,99831.53
2022-07-31T03:30:30.611Z,99845.22
2022-07-31T03:33:33.086Z,99833.81
2022-07-31T03:36:35.225Z,99838.56
2022-07-31T03:39:38.183Z,99830.00
2022-07-31T03:42:41.229Z,99829.56
2022-07-31T03:45:45.465Z,99827.94
2022-07-31T03:48:48.361Z,99828.28
2022-07-31T03:51:50.829Z,99836.94
2022-07-31T03:54:53.629Z,99830.69
2022-07-31T03:57:57.327Z,99827.97
2022-07-31T04:00:59.802Z,99829.09
2022-07-31T04:04:03.397Z,99831.47
2022-07-31T04:07:06.346Z,99841.66
2022-07-31T04:10:09.261Z,99832.97
2022-07-31T04:13:11.517Z,99840.75
2022-07-31T04:16:15.369Z,99842.09
2022-07-31T04:19:17.561Z,99844.84
2022-07-31T04:22:19.971Z,99846.28
2022-07-31T04:25:23.309Z,99850.59
2022-07-31T04:28:27.142Z,99847.41
2022-07-31T04:31:29.978Z,99851.75
2022-07-31T04:34:33.444Z,99852.53
2022-07-31T04:37:35.780Z,99856.84
2022-07-31T04:40:38.607Z,99859.97
2022-07-31T04:43:40.728Z,99838.84
2022-07-31T04:46:45.127Z,99857.19
2022-07-31T04:49:47.432Z,99847.41
2022-07-31T04:52:50.276Z,99857.69
2022-07-31T04:56:11.207Z,99838.84
2022-07-31T04:59:15.190Z,99840.34
2022-07-31T05:02:17.970Z,99844.41
2022-07-31T05:05:20.365Z,99840.91
2022-07-31T05:08:23.418Z,99847.06
2022-07-31T05:11:25.924Z,99848.66
2022-07-31T05:14:28.633Z,99856.91
2022-07-31T05:17:30.989Z,99846.78
2022-07-31T05:20:33.315Z,99850.97
2022-07-31T05:23:36.296Z,99854.47
2022-07-31T05:26:38.820Z,99848.09
2022-07-31T05:29:41.705Z,99853.03
2022-07-31T05:32:44.199Z,99848.09
2022-07-31T05:35:46.683Z,99849.50
2022-07-31T05:38:49.006Z,99851.00
2022-07-31T05:41:52.841Z,99854.44
2022-07-31T05:44:55.767Z,99844.44
2022-07-31T05:47:58.407Z,99847.59
2022-07-31T05:51:05.071Z,99841.41
2022-07-31T05:54:08.063Z,99853.03
2022-07-31T05:57:33.708Z,99849.59
2022-07-31T06:00:37.267Z,99851.50
2022-07-31T06:03:51.887Z,99862.13
2022-07-31T06:06:54.863Z,99856.66
2022-07-31T06:09:57.297Z,99853.66
2022-07-31T06:12:59.476Z,99862.41
2022-07-31T06:16:01.879Z,99842.88
2022-07-31T06:19:03.994Z,99855.72
2022-07-31T06:22:06.869Z,99855.91
2022-07-31T06:25:10.791Z,99861.25
2022-07-31T06:28:15.669Z,99860.94
2022-07-31T06:31:21.703Z,99869.44
2022-07-31T06:34:24.704Z,99866.13
2022-07-31T06:37:27.227Z,99871.72
2022-07-31T06:40:29.903Z,99884.97
2022-07-31T06:43:37.636Z,99871.72
2022-07-31T06:46:49.598Z,99873.28
2022-07-31T06:49:54.902Z,99878.81
2022-07-31T06:52:58.635Z,99885.44
2022-07-31T06:56:00.859Z,99884.38
2022-07-31T06:59:05.118Z,99881.78
2022-07-31T07:02:08.294Z,99882.69
2022-07-31T07:05:10.924Z,99884.16
2022-07-31T07:08:13.175Z,99869.88
2022-07-31T07:11:16.685Z,99878.94
2022-07-31T07:14:19.050Z,99877.75
2022-07-31T07:17:23.864Z,99882.62
2022-07-31T07:20:29.443Z,99872.94
2022-07-31T07:23:33.151Z,99878.22
2022-07-31T07:26:36.517Z,99880.97
2022-07-31T07:29:39.097Z,99872.75
2022-07-31T07:32:45.047Z,99862.59
2022-07-31T07:35:47.928Z,99857.22
2022-07-31T07:38:55.750Z,99845.97
2022-07-31T07:41:58.467Z,99855.87
2022-07-31T07:45:03.394Z,99863.56
2022-07-31T07:48:10.103Z,99853.25
2022-07-31T07:51:13.609Z,99876.09
2022-07-31T07:54:17.241Z,99870.94
2022-07-31T07:57:21.423Z,99869.03
2022-07-31T08:00:25.920Z,99862.41
2022-07-31T08:03:51.214Z,99880.22
2022-07-31T08:06:52.027Z,99880.19
2022-07-31T08:09:56.159Z,99862.19
2022-07-31T08:12:59.815Z,99871.34
2022-07-31T08:16:03.812Z,99874.09
2022-07-31T08:19:06.084Z,99883.53
2022-07-31T08:22:08.819Z,99882.81
2022-07-31T08:25:14.361Z,99870.69
2022-07-31T08:28:19.487Z,99883.28
2022-07-31T08:31:26.496Z,99881.34
2022-07-31T08:34:31.417Z,99886.03
2022-07-31T08:37:50.906Z,99896.66
2022-07-31T08:40:57.018Z,99875.59
2022-07-31T08:44:04.159Z,99873.63
2022-07-31T08:47:09.002Z,99898.06
2022-07-31T08:50:15.251Z,99873.34
2022-07-31T08:53:22.694Z,99874.88
2022-07-31T08:56:25.771Z,99872.94
2022-07-31T08:59:28.855Z,99866.69
2022-07-31T09:02:32.417Z,99889.47
2022-07-31T09:05:42.101Z,99885.50
2022-07-31T09:08:45.611Z,99880.84
2022-07-31T09:11:49.947Z,99899.63
2022-07-31T09:14:59.735Z,99872.56
2022-07-31T09:18:02.178Z,99890.09
2022-07-31T09:21:07.012Z,99908.09
2022-07-31T09:24:13.995Z,99883.75
2022-07-31T09:27:17.886Z,99911.91
2022-07-31T09:30:20.507Z,99902.06
2022-07-31T09:33:24.134Z,99916.50
2022-07-31T09:36:27.789Z,99912.06
2022-07-31T09:39:31.847Z,99914.94
2022-07-31T09:42:48.417Z,99921.94
2022-07-31T09:45:59.952Z,99923.50
2022-07-31T09:49:03.209Z,99929.88
2022-07-31T09:52:05.600Z,99933.91
2022-07-31T09:55:16.542Z,99931.56
2022-07-31T09:58:19.627Z,99940.69
2022-07-31T10:01:22.581Z,99935.53
2022-07-31T10:04:25.378Z,99929.31
2022-07-31T10:07:32.591Z,99934.91
2022-07-31T10:10:36.260Z,99925.06
2022-07-31T10:13:46.125Z,99931.75
2022-07-31T10:16:51.970Z,99934.47
2022-07-31T10:20:03.717Z,99934.09
2022-07-31T10:23:22.385Z,99952.94
2022-07-31T10:26:50.325Z,99940.37
2022-07-31T10:29:49.348Z,99937.38
2022-07-31T10:32:51.948Z,99929.97
2022-07-31T10:36:01.988Z,99937.41
2022-07-31T10:39:24.640Z,99961.34
2022-07-31T10:42:45.909Z,99946.00
2022-07-31T10:45:50.859Z,99939.37
2022-07-31T10:48:53.633Z,99935.84
2022-07-31T10:51:59.353Z,99942.88
2022-07-31T10:55:15.508Z,99961.69
2022-07-31T10:58:22.553Z,99954.69
2022-07-31T11:01:27.132Z,99941.38
2022-07-31T11:04:33.934Z,99956.31
2022-07-31T11:07:38.296Z,99961.81
2022-07-31T11:10:53.394Z,99953.94
2022-07-31T11:13:56.620Z,99974.75
2022-07-31T11:17:01.558Z,99951.28
2022-07-31T11:20:21.993Z,99958.03
2022-07-31T11:23:29.788Z,99969.13
2022-07-31T11:26:41.007Z,99956.22
2022-07-31T11:29:59.558Z,99958.62
2022-07-31T11:33:05.758Z,99984.25
2022-07-31T11:36:09.520Z,99983.84
2022-07-31T11:39:12.939Z,99975.22
2022-07-31T11:42:19.344Z,99976.41
2022-07-31T11:45:25.227Z,99970.50
2022-07-31T11:48:44.969Z,99992.50
2022-07-31T11:51:48.533Z,99999.88
2022-07-31T11:54:51.048Z,100001.03
2022-07-31T11:57:53.457Z,99991.97
2022-07-31T12:01:01.119Z,99979.41
2022-07-31T12:04:08.838Z,100008.06
2022-07-31T12:07:11.811Z,99985.63
2022-07-31T12:10:14.685Z,100000.53
2022-07-31T12:13:19.074Z,99981.69
2022-07-31T12:16:21.535Z,99987.25
2022-07-31T12:19:37.376Z,99986.88
2022-07-31T12:22:41.455Z,99990.06
2022-07-31T12:25:45.552Z,99988.13
2022-07-31T12:29:09.888Z,100008.16
2022-07-31T12:32:12.090Z,99995.16
2022-07-31T12:35:14.544Z,99981.78
2022-07-31T12:38:44.799Z,100007.69
2022-07-31T12:41:48.705Z,99998.22
2022-07-31T12:44:52.745Z,99988.69
2022-07-31T12:47:55.488Z,99996.88
2022-07-31T12:50:57.587Z,100000.72
2022-07-31T12:54:02.429Z,99989.72
2022-07-31T12:57:06.879Z,99996.72
2022-07-31T13:00:10.303Z,100001.84
2022-07-31T13:03:14.258Z,99999.47
2022-07-31T13:06:17.037Z,99993.53
2022-07-31T13:09:19.643Z,99995.84
2022-07-31T13:12:22.063Z,99995.84
2022-07-31T13:15:30.266Z,99996.59
2022-07-31T13:18:33.974Z,100007.56
2022-07-31T13:21:40.599Z,100006.75
2022-07-31T13:24:52.174Z,100012.63
2022-07-31T13:27:54.392Z,100004.81
2022-07-31T13:30:56.861Z,100021.59
2022-07-31T13:33:59.043Z,100008.25
2022-07-31T13:37:01.673Z,100007.81
2022-07-31T13:40:04.282Z,100016.03
2022-07-31T13:43:06.711Z,100004.62
2022-07-31T13:46:08.857Z,100015.62
2022-07-31T13:49:11.649Z,100022.31
2022-07-31T13:52:13.838Z,100005.97
2022-07-31T13:55:16.294Z,100008.41
2022-07-31T13:58:18.440Z,100008.09
2022-07-31T14:01:20.869Z,100020.28
2022-07-31T14:04:23.926Z,100014.56
2022-07-31T14:07:47.822Z,100018.53
2022-07-31T14:10:50.269Z,99991.91
2022-07-31T14:13:52.391Z,100001.81
2022-07-31T14:16:54.786Z,100000.22
2022-07-31T14:19:56.904Z,99999.88
2022-07-31T14:22:59.564Z,100001.81
2022-07-31T14:26:02.881Z,99999.47
2022-07-31T14:29:07.270Z,99989.62
2022-07-31T14:32:09.430Z,100004.56
2022-07-31T14:35:11.866Z,100004.91
2022-07-31T14:38:14.017Z,100010.31
2022-07-31T14:41:29.771Z,100014.09
2022-07-31T14:44:31.872Z,100021.47
2022-07-31T14:47:34.969Z,100017.81
2022-07-31T14:50:39.856Z,100019.22
2022-07-31T14:53:42.259Z,100014.72
2022-07-31T14:57:11.650Z,100008.66
2022-07-31T15:00:12.993Z,100000.34
2022-07-31T15:03:15.330Z,99983.81
2022-07-31T15:06:45.613Z,99974.72
2022-07-31T15:09:40.423Z,99975.47
2022-07-31T15:12:42.833Z,99969.81
2022-07-31T15:15:45.875Z,99960.88
2022-07-31T15:18:51.544Z,99968.47
2022-07-31T15:22:10.000Z,99956.84
2022-07-31T15:25:14.908Z,99967.56
2022-07-31T15:28:17.015Z,99966.91
2022-07-31T15:31:19.701Z,99972.00
2022-07-31T15:34:21.962Z,99963.81
2022-07-31T15:37:24.344Z,99961.88
2022-07-31T15:40:26.710Z,99962.72
2022-07-31T15:43:29.103Z,99964.31
2022-07-31T15:46:31.259Z,99968.59
2022-07-31T15:49:44.041Z,99963.91
2022-07-31T15:52:47.555Z,99960.69
2022-07-31T15:55:49.898Z,99944.25
2022-07-31T15:58:53.912Z,99959.53
2022-07-31T16:01:56.429Z,99950.09
2022-07-31T16:05:11.211Z,99952.53
2022-07-31T16:08:29.094Z,99950.50
2022-07-31T16:12:04.736Z,99948.47
2022-07-31T16:14:59.220Z,99944.47
2022-07-31T16:18:02.031Z,99944.88
2022-07-31T16:21:04.287Z,99939.41
2022-07-31T16:24:06.861Z,99938.94
2022-07-31T16:27:09.073Z,99943.66
2022-07-31T16:30:13.205Z,99947.56
2022-07-31T16:33:15.515Z,99943.31
2022-07-31T16:36:20.305Z,99942.88
2022-07-31T16:39:22.401Z,99952.25
2022-07-31T16:42:25.133Z,99950.72
2022-07-31T16:45:27.279Z,99942.91
2022-07-31T16:48:29.879Z,99940.50
2022-07-31T16:51:32.017Z,99939.72
2022-07-31T16:54:34.508Z,99941.25
2022-07-31T16:57:36.674Z,99938.94
2022-07-31T17:00:39.825Z,99941.31
2022-07-31T17:04:00.046Z,99936.62
2022-07-31T17:07:04.695Z,99929.22
2022-07-31T17:10:07.713Z,99931.97
2022-07-31T17:13:10.245Z,99932.75
2022-07-31T17:16:12.368Z,99924.94
2022-07-31T17:19:15.894Z,99923.00
2022-07-31T17:22:18.735Z,99921.47
2022-07-31T17:25:22.560Z,99917.19
2022-07-31T17:28:24.713Z,99937.94
2022-07-31T17:31:27.088Z,99941.13
2022-07-31T17:34:29.227Z,99947.00
2022-07-31T17:37:31.688Z,99943.81
2022-07-31T17:40:43.599Z,99934.03
2022-07-31T17:43:50.676Z,99952.88
2022-07-31T17:46:55.497Z,99961.88
2022-07-31T17:50:00.562Z,99969.03
2022-07-31T17:53:03.786Z,99971.34
2022-07-31T17:56:10.094Z,99969.38
2022-07-31T17:59:15.235Z,99967.44
2022-07-31T18:02:17.618Z,99987.44
2022-07-31T18:05:20.145Z,99978.78
2022-07-31T18:08:22.324Z,99976.75
2022-07-31T18:11:24.931Z,99988.91
2022-07-31T18:14:27.196Z,99983.03
2022-07-31T18:17:31.253Z,99990.09
2022-07-31T18:20:33.647Z,99986.16
2022-07-31T18:23:36.089Z,99988.47
2022-07-31T18:26:38.351Z,99982.97
2022-07-31T18:29:40.876Z,99991.25
2022-07-31T18:32:43.006Z,99984.56
2022-07-31T18:35:46.620Z,99986.88
2022-07-31T18:38:48.797Z,99984.91
2022-07-31T18:41:51.501Z,99993.16
2022-07-31T18:44:53.638Z,99990.00
2022-07-31T18:47:56.071Z,99984.09
2022-07-31T18:51:04.603Z,99996.25
2022-07-31T18:54:07.658Z,99994.63
2022-07-31T18:57:09.807Z,99995.84
2022-07-31T19:00:12.792Z,99999.34
2022-07-31T19:03:14.935Z,100000.13
2022-07-31T19:06:17.858Z,100004.03
2022-07-31T19:09:22.715Z,100017.38
2022-07-31T19:12:25.107Z,100021.69
2022-07-31T19:15:27.365Z,100021.28
2022-07-31T19:18:29.794Z,100026.75
2022-07-31T19:21:42.049Z,100024.78
2022-07-31T19:24:45.393Z,100028.25
2022-07-31T19:27:50.485Z,100040.69
2022-07-31T19:30:53.719Z,100042.19
2022-07-31T19:33:55.863Z,100049.66
2022-07-31T19:36:58.467Z,100049.19
2022-07-31T19:40:00.882Z,100037.69
2022-07-31T19:43:03.381Z,100041.19
2022-07-31T19:46:10.293Z,100035.25
2022-07-31T19:49:14.682Z,100039.50
2022-07-31T19:52:16.899Z,100037.88
2022-07-31T19:55:19.384Z,100029.97
2022-07-31T19:58:21.792Z,100025.97
2022-07-31T20:01:24.202Z,100022.78
2022-07-31T20:04:26.629Z,100020.44
2022-07-31T20:07:32.657Z,100019.56
2022-07-31T20:10:35.452Z,100013.31
2022-07-31T20:13:40.433Z,100011.41
2022-07-31T20:16:42.837Z,100009.13
2022-07-31T20:20:15.073Z,100017.44
2022-07-31T20:23:07.956Z,100017.44
2022-07-31T20:26:12.602Z,100016.72
2022-07-31T20:29:15.050Z,100017.72
2022-07-31T20:32:17.247Z,100019.00
2022-07-31T20:35:33.070Z,100015.34
2022-07-31T20:38:47.862Z,100019.50
2022-07-31T20:41:50.454Z,100021.47
2022-07-31T20:44:52.604Z,100018.72
2022-07-31T20:47:56.704Z,100012.28
2022-07-31T20:51:00.027Z,100016.94
2022-07-31T20:54:02.813Z,100012.63
2022-07-31T20:57:05.030Z,100022.00
2022-07-31T21:00:08.685Z,100016.81
2022-07-31T21:03:10.962Z,100021.47
2022-07-31T21:06:13.613Z,100020.88
2022-07-31T21:09:15.748Z,100020.16
2022-07-31T21:12:18.124Z,100024.06
2022-07-31T21:15:42.957Z,100030.72
2022-07-31T21:18:43.668Z,100028.50
2022-07-31T21:21:45.943Z,100026.50
2022-07-31T21:24:48.618Z,100025.69
2022-07-31T21:27:50.808Z,100036.56
2022-07-31T21:30:56.077Z,100027.19
2022-07-31T21:33:58.810Z,100032.19
2022-07-31T21:37:01.842Z,100036.50
2022-07-31T21:40:05.224Z,100038.03
2022-07-31T21:43:08.480Z,100035.62
2022-07-31T21:46:15.287Z,100041.81
2022-07-31T21:49:21.933Z,100044.94
2022-07-31T21:52:27.185Z,100043.84
2022-07-31T21:55:29.654Z,100041.03
2022-07-31T21:58:31.765Z,100045.25
2022-07-31T22:01:34.187Z,100050.13
2022-07-31T22:04:56.653Z,100061.16
2022-07-31T22:07:58.784Z,100056.06
2022-07-31T22:11:01.948Z,100058.44
2022-07-31T22:14:04.321Z,100063.50
2022-07-31T22:17:06.727Z,100061.53
2022-07-31T22:20:16.176Z,100054.81
2022-07-31T22:23:18.846Z,100053.81
2022-07-31T22:26:21.311Z,100062.78
2022-07-31T22:29:23.727Z,100063.16
2022-07-31T22:32:26.036Z,100049.03
2022-07-31T22:35:28.681Z,100049.31
2022-07-31T22:38:30.996Z,100056.16
2022-07-31T22:41:33.425Z,100049.22
2022-07-31T22:44:37.957Z,100048.44
2022-07-31T22:47:43.593Z,100046.44
2022-07-31T22:50:45.886Z,100046.72
2022-07-31T22:53:50.182Z,100050.69
2022-07-31T22:56:52.300Z,100042.34
2022-07-31T22:59:54.697Z,100045.22
2022-07-31T23:02:56.884Z,100055.00
2022-07-31T23:06:29.681Z,100057.81
2022-07-31T23:09:23.619Z,100056.16
2022-07-31T23:12:28.279Z,100046.38
2022-07-31T23:15:31.605Z,100055.31
2022-07-31T23:18:34.014Z,100050.84
2022-07-31T23:21:36.177Z,100044.03
2022-07-31T23:24:38.565Z,100041.66
2022-07-31T23:27:40.683Z,100045.88
2022-07-31T23:30:43.071Z,100041.50
2022-07-31T23:33:46.246Z,100043.78
2022-07-31T23:36:48.645Z,100036.97
2022-07-31T23:39:50.784Z,100041.72
2022-07-31T23:42:53.200Z,100038.47
2022-07-31T23:45:55.426Z,100042.72
2022-07-31T23:48:59.292Z,100037.63
2022-07-31T23:52:01.514Z,100033.66
2022-07-31T23:55:04.070Z,100033.72
2022-07-31T23:58:06.331Z,100026.41
